Time;durP1;ratioP1;P1;durP2;ratioP2;P2;SDS_P1;SDS_P2;PMS_P1;PMS_P2;Temp;Humidity;BMP_temperature;BMP_pressure;BME280_temperature;BME280_humidity;BME280_pressure;Samples;Min_cycle;Max_cycle;Signal;HPM_P1;HPM_P2
2023/10/29 00:02:05;;;;;;;7.43;3.00;;;;;;;8.14;100.00;94943.75;5077415;28;20016;-62
2023/10/29 00:04:35;;;;;;;4.45;2.95;;;;;;;8.17;100.00;94953.94;5090119;28;20024;-62
2023/10/29 00:07:04;;;;;;;6.53;3.17;;;;;;;8.21;100.00;94944.81;5077987;28;20020;-62
2023/10/29 00:09:29;;;;;;;3.30;3.10;;;;;;;8.17;100.00;94961.81;5084608;28;20076;-63
2023/10/29 00:11:56;;;;;;;3.58;2.92;;;;;;;8.19;100.00;94952.00;5093570;28;20012;-64
2023/10/29 00:14:21;;;;;;;3.30;2.70;;;;;;;8.33;100.00;94937.56;5094774;28;20028;-64
2023/10/29 00:16:47;;;;;;;2.78;2.58;;;;;;;8.45;100.00;94914.59;5076009;28;20023;-63
2023/10/29 00:19:12;;;;;;;2.90;2.30;;;;;;;8.48;100.00;94916.91;5073048;28;20028;-64
2023/10/29 00:21:38;;;;;;;3.78;2.50;;;;;;;8.50;100.00;94904.50;5092053;28;20073;-64
2023/10/29 00:24:03;;;;;;;4.65;2.92;;;;;;;8.49;100.00;94886.25;5073118;28;20021;-63
2023/10/29 00:26:29;;;;;;;7.43;2.80;;;;;;;8.45;100.00;94880.47;5077935;28;20020;-63
2023/10/29 00:28:55;;;;;;;2.95;2.55;;;;;;;8.43;100.00;94891.13;5085233;28;20677;-63
2023/10/29 00:31:20;;;;;;;3.03;2.42;;;;;;;8.44;100.00;94891.94;5083298;28;20618;-63
2023/10/29 00:33:46;;;;;;;3.92;2.67;;;;;;;8.44;100.00;94891.94;5078393;28;20158;-63
2023/10/29 00:36:12;;;;;;;5.80;2.20;;;;;;;8.48;100.00;94879.38;5080500;28;20361;-64
2023/10/29 00:38:37;;;;;;;2.95;2.35;;;;;;;8.53;100.00;94874.53;5083007;28;20026;-63
2023/10/29 00:41:03;;;;;;;3.72;2.00;;;;;;;8.51;100.00;94868.59;5087257;28;20131;-64
2023/10/29 00:46:05;;;;;;;4.63;2.38;;;;;;;8.69;100.00;94844.97;5088886;28;20032;-63
2023/10/29 00:48:31;;;;;;;2.40;2.20;;;;;;;8.63;100.00;94833.31;5081840;28;20028;-63
2023/10/29 00:50:57;;;;;;;2.47;1.65;;;;;;;8.61;100.00;94819.50;5079117;28;20020;-63
2023/10/29 00:53:24;;;;;;;3.75;1.67;;;;;;;8.71;100.00;94798.41;5080637;28;20073;-63
2023/10/29 00:55:50;;;;;;;3.67;2.40;;;;;;;8.71;100.00;94783.50;5095288;28;20019;-63
2023/10/29 00:58:19;;;;;;;7.70;1.85;;;;;;;8.69;100.00;94795.13;5086402;28;20630;-63
2023/10/29 01:00:45;;;;;;;3.60;2.35;;;;;;;8.64;100.00;94800.84;5091875;28;20012;-63
2023/10/29 01:03:10;;;;;;;2.03;1.90;;;;;;;8.67;100.00;94803.16;5082703;28;20508;-63
2023/10/29 01:05:36;;;;;;;2.20;1.70;;;;;;;8.65;100.00;94799.03;5076187;28;20075;-63
2023/10/29 01:08:02;;;;;;;1.83;1.73;;;;;;;8.66;100.00;94811.19;5086778;28;20493;-63
2023/10/29 01:10:27;;;;;;;3.10;1.85;;;;;;;8.67;100.00;94792.66;5085978;28;20021;-63
2023/10/29 01:12:52;;;;;;;2.45;1.92;;;;;;;8.66;100.00;94812.00;5076211;28;20055;-63
2023/10/29 01:15:18;;;;;;;4.43;1.95;;;;;;;8.76;100.00;94809.31;5083935;28;20032;-63
2023/10/29 01:17:43;;;;;;;2.30;2.10;;;;;;;8.77;100.00;94803.06;5085458;28;20028;-63
2023/10/29 01:20:11;;;;;;;2.47;2.17;;;;;;;8.76;100.00;94808.47;5082871;28;20058;-63
2023/10/29 01:22:37;;;;;;;2.40;2.28;;;;;;;8.67;100.00;94824.16;5092297;28;20477;-63
2023/10/29 01:25:07;;;;;;;5.82;2.40;;;;;;;8.58;100.00;94820.63;5077851;28;20077;-63
2023/10/29 01:27:33;;;;;;;2.55;2.13;;;;;;;8.55;100.00;94820.94;5080029;28;20032;-63
2023/10/29 01:29:58;;;;;;;2.80;2.60;;;;;;;8.54;100.00;94834.19;5084149;28;20016;-63
2023/10/29 01:32:23;;;;;;;5.88;2.72;;;;;;;8.51;100.00;94830.09;5089452;28;20025;-64
2023/10/29 01:34:50;;;;;;;2.60;2.42;;;;;;;8.40;100.00;94838.16;5086437;28;20107;-63
2023/10/29 01:37:15;;;;;;;3.20;2.40;;;;;;;8.31;100.00;94842.47;5081362;28;20032;-63
2023/10/29 01:39:41;;;;;;;3.10;2.65;;;;;;;8.26;100.00;94840.28;5079315;28;20024;-63
2023/10/29 01:42:06;;;;;;;3.78;2.78;;;;;;;8.27;100.00;94852.44;5091394;28;20451;-64
2023/10/29 01:44:31;;;;;;;6.25;2.70;;;;;;;8.25;100.00;94864.06;5078121;28;20043;-63
2023/10/29 01:46:57;;;;;;;4.43;2.70;;;;;;;8.29;100.00;94881.97;5083471;28;20052;-64
2023/10/29 01:49:22;;;;;;;5.55;2.70;;;;;;;8.21;100.00;94886.31;5089954;28;20064;-64
2023/10/29 01:51:49;;;;;;;2.50;2.30;;;;;;;8.12;100.00;94893.25;5083616;28;20016;-63
2023/10/29 01:54:15;;;;;;;3.42;2.30;;;;;;;8.16;100.00;94892.00;5079315;28;20028;-63
2023/10/29 01:56:41;;;;;;;4.38;2.38;;;;;;;8.09;100.00;94878.63;5065167;28;20043;-63
2023/10/29 01:59:07;;;;;;;4.85;2.60;;;;;;;7.98;100.00;94884.91;5090443;28;20032;-63
2023/10/29 02:01:32;;;;;;;3.67;2.40;;;;;;;7.97;100.00;94870.16;5080286;28;20035;-63
2023/10/29 02:03:58;;;;;;;3.35;2.78;;;;;;;7.89;100.00;94877.91;5077524;28;20021;-64
2023/10/29 02:06:23;;;;;;;4.55;2.80;;;;;;;7.78;100.00;94884.19;5078485;28;20109;-63
2023/10/29 02:08:48;;;;;;;2.95;2.65;;;;;;;7.91;100.00;94875.97;5076492;28;20048;-63
2023/10/29 02:11:14;;;;;;;2.78;2.58;;;;;;;7.86;100.00;94884.25;5083824;28;20043;-63
2023/10/29 02:13:39;;;;;;;2.63;2.42;;;;;;;7.89;100.00;94881.34;5081276;28;20024;-63
2023/10/29 02:16:05;;;;;;;2.72;2.50;;;;;;;8.05;100.00;94881.69;5085242;28;20110;-63
2023/10/29 02:18:30;;;;;;;5.95;2.40;;;;;;;7.93;100.00;94879.28;5091043;28;20039;-63
2023/10/29 02:20:56;;;;;;;4.57;2.53;;;;;;;7.83;100.00;94888.97;5082606;28;20052;-64
2023/10/29 02:23:21;;;;;;;5.43;2.60;;;;;;;7.82;100.00;94889.94;5085457;28;20028;-64
2023/10/29 02:25:47;;;;;;;2.65;2.45;;;;;;;7.72;100.00;94893.44;5089651;28;20431;-63
2023/10/29 02:28:12;;;;;;;3.28;2.47;;;;;;;7.63;100.00;94883.81;5080552;28;20401;-63
2023/10/29 02:30:38;;;;;;;3.97;2.50;;;;;;;7.63;100.00;94899.53;5084131;28;20044;-64
2023/10/29 02:33:03;;;;;;;3.55;2.50;;;;;;;7.56;100.00;94917.63;5080713;28;20024;-63
2023/10/29 02:35:29;;;;;;;2.28;2.13;;;;;;;7.54;100.00;94898.59;5080470;28;20081;-63
2023/10/29 02:37:54;;;;;;;3.08;2.63;;;;;;;7.79;100.00;94898.94;5081745;28;20103;-64
2023/10/29 02:40:20;;;;;;;5.03;2.55;;;;;;;7.62;100.00;94902.28;5081817;28;20119;-64
2023/10/29 02:42:46;;;;;;;2.92;2.72;;;;;;;7.61;100.00;94893.59;5085965;28;20009;-63
2023/10/29 02:45:11;;;;;;;4.60;2.90;;;;;;;7.55;100.00;94891.56;5086422;28;20032;-63
2023/10/29 02:47:36;;;;;;;4.15;2.47;;;;;;;7.51;100.00;94893.63;5075038;28;20393;-64
2023/10/29 02:50:02;;;;;;;4.80;2.72;;;;;;;7.43;100.00;94878.66;5085409;28;20524;-63
2023/10/29 02:52:27;;;;;;;3.47;2.33;;;;;;;7.50;100.00;94888.53;5080022;28;20027;-64
2023/10/29 02:54:53;;;;;;;3.28;2.28;;;;;;;7.44;100.00;94882.91;5089581;28;20116;-64
2023/10/29 02:57:18;;;;;;;6.47;2.65;;;;;;;7.39;100.00;94882.50;5084445;28;20028;-64
2023/10/29 02:59:43;;;;;;;6.78;2.53;;;;;;;7.36;100.00;94874.13;5079132;28;20032;-64
2023/10/29 03:02:09;;;;;;;2.92;2.50;;;;;;;7.33;100.00;94883.06;5077018;28;20059;-63
2023/10/29 03:04:34;;;;;;;10.48;2.53;;;;;;;7.55;100.00;94870.59;5079613;28;20033;-64
2023/10/29 03:06:59;;;;;;;6.25;2.50;;;;;;;7.68;100.00;94871.13;5077014;28;20063;-63
2023/10/29 03:09:25;;;;;;;3.25;2.38;;;;;;;7.55;100.00;94852.25;5080189;28;20128;-64
2023/10/29 03:11:50;;;;;;;6.60;2.72;;;;;;;7.48;100.00;94861.69;5075874;28;20024;-64
2023/10/29 03:14:15;;;;;;;6.07;2.72;;;;;;;7.60;100.00;94871.81;5083193;28;20031;-64
2023/10/29 03:16:41;;;;;;;3.13;2.40;;;;;;;7.65;100.00;94862.72;5084136;28;20028;-63
2023/10/29 03:19:06;;;;;;;5.47;2.30;;;;;;;7.63;100.00;94862.03;5081815;28;20032;-64
2023/10/29 03:21:32;;;;;;;4.07;2.30;;;;;;;7.63;100.00;94860.25;5087046;28;20032;-64
2023/10/29 03:23:57;;;;;;;4.03;2.55;;;;;;;7.66;100.00;94859.13;5086049;28;20030;-63
2023/10/29 03:26:22;;;;;;;2.63;2.40;;;;;;;7.56;100.00;94867.84;5081039;28;20060;-63
2023/10/29 03:28:49;;;;;;;3.63;2.72;;;;;;;7.51;100.00;94879.72;5078167;28;20035;-64
2023/10/29 03:31:15;;;;;;;7.13;3.03;;;;;;;7.50;100.00;94872.84;5077395;28;20024;-64
2023/10/29 03:33:41;;;;;;;4.18;3.22;;;;;;;7.55;100.00;94863.59;5078784;28;20032;-63
2023/10/29 03:36:07;;;;;;;4.85;3.30;;;;;;;7.53;100.00;94875.16;5084976;28;20024;-64
2023/10/29 03:38:33;;;;;;;3.90;3.50;;;;;;;7.46;100.00;94872.28;5079342;28;20261;-64
2023/10/29 03:40:58;;;;;;;5.32;3.50;;;;;;;7.43;100.00;94883.03;5081540;28;20144;-64
2023/10/29 03:43:23;;;;;;;3.30;3.00;;;;;;;7.40;100.00;94878.91;5087190;28;20028;-63
2023/10/29 03:45:49;;;;;;;6.03;3.28;;;;;;;7.34;100.00;94895.19;5078769;28;20555;-64
2023/10/29 03:48:15;;;;;;;4.20;3.10;;;;;;;7.31;100.00;94890.25;5075705;28;20417;-64
2023/10/29 03:50:41;;;;;;;3.38;2.88;;;;;;;7.30;100.00;94897.28;5082114;28;20025;-63
2023/10/29 03:53:07;;;;;;;6.45;2.72;;;;;;;7.27;100.00;94894.13;5076804;28;20028;-63
2023/10/29 03:55:35;;;;;;;3.22;2.92;;;;;;;7.37;100.00;94887.06;5091266;28;20639;-64
2023/10/29 03:58:01;;;;;;;3.60;2.60;;;;;;;7.29;100.00;94900.88;5080366;28;20033;-63
2023/10/29 04:00:26;;;;;;;3.35;2.95;;;;;;;7.24;100.00;94887.34;5080210;28;20029;-63
2023/10/29 04:02:51;;;;;;;5.25;3.38;;;;;;;7.24;100.00;94891.78;5076791;28;20135;-63
2023/10/29 04:05:17;;;;;;;6.20;2.80;;;;;;;7.36;100.00;94890.63;5077384;28;20417;-64
2023/10/29 04:07:42;;;;;;;3.88;3.30;;;;;;;7.31;100.00;94893.69;5080975;28;20020;-63
2023/10/29 04:10:08;;;;;;;3.22;2.92;;;;;;;7.30;100.00;94901.69;5083361;28;20045;-63
2023/10/29 04:12:33;;;;;;;3.25;2.63;;;;;;;7.33;100.00;94890.94;5080144;28;20020;-64
2023/10/29 04:14:59;;;;;;;7.47;2.80;;;;;;;7.29;100.00;94894.81;5084281;28;20054;-63
2023/10/29 04:17:24;;;;;;;5.75;5.00;;;;;;;7.28;100.00;94888.72;5090133;28;20024;-64
2023/10/29 04:19:50;;;;;;;4.82;2.95;;;;;;;7.24;100.00;94882.13;5089103;28;20076;-64
2023/10/29 04:22:16;;;;;;;3.22;2.92;;;;;;;7.26;100.00;94882.81;5081205;28;20016;-64
2023/10/29 04:24:41;;;;;;;4.03;3.70;;;;;;;7.34;100.00;94884.72;5085966;28;20036;-64
2023/10/29 04:27:06;;;;;;;4.72;3.22;;;;;;;7.34;100.00;94879.47;5083097;28;20020;-64
2023/10/29 04:29:32;;;;;;;3.65;3.35;;;;;;;7.34;100.00;94884.72;5082409;28;20082;-64
2023/10/29 04:31:57;;;;;;;4.63;3.10;;;;;;;7.36;100.00;94874.94;5086185;28;20032;-64
2023/10/29 04:34:23;;;;;;;3.28;2.75;;;;;;;7.38;100.00;94867.75;5083181;28;20400;-64
2023/10/29 04:36:51;;;;;;;3.28;2.85;;;;;;;7.40;100.00;94867.63;5084635;28;20572;-63
2023/10/29 04:39:19;;;;;;;3.80;3.00;;;;;;;7.39;100.00;94860.75;5085815;28;20025;-64
2023/10/29 04:41:45;;;;;;;3.20;2.80;;;;;;;7.36;100.00;94855.78;5082976;28;20092;-63
2023/10/29 04:44:11;;;;;;;4.40;3.00;;;;;;;7.34;100.00;94853.28;5080875;28;20080;-64
2023/10/29 04:46:36;;;;;;;6.97;3.38;;;;;;;7.33;100.00;94861.31;5088866;28;20603;-64
2023/10/29 04:49:02;;;;;;;5.38;3.00;;;;;;;7.29;100.00;94851.13;5078793;28;20037;-64
2023/10/29 04:51:29;;;;;;;5.15;3.00;;;;;;;7.28;100.00;94853.88;5082562;28;20035;-63
2023/10/29 04:53:55;;;;;;;7.50;2.95;;;;;;;7.45;100.00;94847.91;5085711;28;20020;-63
2023/10/29 04:56:20;;;;;;;4.43;2.92;;;;;;;7.34;100.00;94845.44;5080636;28;20109;-63
2023/10/29 04:58:46;;;;;;;4.30;3.15;;;;;;;7.36;100.00;94863.66;5080014;28;20028;-63
2023/10/29 05:01:11;;;;;;;5.18;3.47;;;;;;;7.40;100.00;94873.66;5081806;28;20401;-64
2023/10/29 05:03:37;;;;;;;5.22;3.95;;;;;;;7.44;100.00;94880.31;5078149;28;20023;-64
2023/10/29 05:06:03;;;;;;;5.68;3.05;;;;;;;7.38;100.00;94890.50;5080047;28;20024;-64
2023/10/29 05:08:29;;;;;;;4.85;3.20;;;;;;;7.37;100.00;94889.66;5087114;28;20044;-64
2023/10/29 05:10:55;;;;;;;3.45;2.90;;;;;;;7.34;100.00;94881.28;5081917;28;20028;-64
2023/10/29 05:13:21;;;;;;;5.00;3.58;;;;;;;7.33;100.00;94882.25;5078537;28;20111;-64
2023/10/29 05:15:46;;;;;;;8.02;3.28;;;;;;;7.30;100.00;94892.06;5079801;28;20077;-64
2023/10/29 05:18:12;;;;;;;6.15;3.33;;;;;;;7.28;100.00;94893.97;5078651;28;20111;-64
2023/10/29 05:20:38;;;;;;;5.13;3.53;;;;;;;7.34;100.00;94883.91;5081686;28;20153;-63
2023/10/29 05:23:03;;;;;;;4.47;2.70;;;;;;;7.30;100.00;94873.72;5079017;28;20119;-64
2023/10/29 05:25:30;;;;;;;4.85;3.58;;;;;;;7.29;100.00;94872.06;5084356;28;20055;-64
2023/10/29 05:27:56;;;;;;;3.58;3.28;;;;;;;7.30;100.00;94867.66;5079693;28;20601;-64
2023/10/29 05:30:22;;;;;;;6.18;5.57;;;;;;;7.29;100.00;94866.84;5080227;28;20089;-64
2023/10/29 05:32:48;;;;;;;10.88;6.93;;;;;;;7.55;100.00;94863.59;5088369;28;20023;-64
2023/10/29 05:35:13;;;;;;;5.95;4.45;;;;;;;7.54;100.00;94864.56;5085665;28;21092;-64
2023/10/29 05:37:39;;;;;;;5.28;3.20;;;;;;;7.40;100.00;94852.72;5085464;28;20063;-64
2023/10/29 05:40:07;;;;;;;5.53;2.90;;;;;;;7.49;100.00;94845.00;5089379;28;20074;-64
2023/10/29 05:42:33;;;;;;;3.20;2.40;;;;;;;7.55;100.00;94855.72;5078216;28;20063;-64
2023/10/29 05:44:59;;;;;;;4.00;3.03;;;;;;;7.64;100.00;94851.41;5083001;28;20035;-64
2023/10/29 05:47:24;;;;;;;6.30;2.95;;;;;;;7.57;100.00;94850.31;5088108;28;20055;-64
2023/10/29 05:49:50;;;;;;;4.45;4.00;;;;;;;7.74;100.00;94843.53;5077005;28;20036;-64
2023/10/29 05:52:15;;;;;;;4.43;2.95;;;;;;;7.86;100.00;94823.19;5088195;28;20025;-64
2023/10/29 05:54:40;;;;;;;4.03;2.40;;;;;;;8.05;100.00;94822.22;5077077;28;20032;-65
2023/10/29 05:57:06;;;;;;;2.55;2.40;;;;;;;8.22;100.00;94814.53;5089752;28;20067;-64
2023/10/29 05:59:32;;;;;;;4.57;2.67;;;;;;;8.12;100.00;94797.06;5076692;28;20040;-64
2023/10/29 06:01:58;;;;;;;3.85;2.95;;;;;;;8.05;100.00;94798.63;5093957;28;20046;-65
2023/10/29 06:04:23;;;;;;;4.45;3.15;;;;;;;7.99;100.00;94802.66;5097128;28;20472;-64
2023/10/29 06:06:49;;;;;;;6.25;2.83;;;;;;;8.01;100.00;94815.63;5076636;28;20161;-64
2023/10/29 06:09:14;;;;;;;4.32;2.40;;;;;;;8.20;100.00;94816.50;5076561;28;20045;-65
2023/10/29 06:11:41;;;;;;;5.20;2.40;;;;;;;8.29;100.00;94805.09;5089288;28;20021;-65
2023/10/29 06:14:06;;;;;;;4.32;2.88;;;;;;;8.26;100.00;94806.22;5075223;28;20481;-64
2023/10/29 06:16:32;;;;;;;6.82;2.92;;;;;;;8.20;100.00;94793.69;5081549;28;20034;-64
2023/10/29 06:18:57;;;;;;;4.03;2.28;;;;;;;8.28;100.00;94787.72;5085018;28;20055;-64
2023/10/29 06:21:23;;;;;;;5.47;3.20;;;;;;;8.28;100.00;94793.75;5094943;28;20031;-65
2023/10/29 06:23:49;;;;;;;3.20;3.00;;;;;;;8.18;100.00;94793.03;5089983;28;20520;-64
2023/10/29 06:26:14;;;;;;;3.40;3.10;;;;;;;8.14;100.00;94789.06;5096337;28;20023;-64
2023/10/29 06:28:39;;;;;;;4.70;2.92;;;;;;;8.07;100.00;94796.69;5080607;28;20476;-65
2023/10/29 06:31:05;;;;;;;3.55;3.20;;;;;;;8.04;100.00;94797.00;5084227;28;20103;-65
2023/10/29 06:33:30;;;;;;;3.58;3.28;;;;;;;8.13;100.00;94806.56;5087764;28;20693;-64
2023/10/29 06:35:59;;;;;;;5.07;4.57;;;;;;;8.35;100.00;94827.28;5077982;28;20032;-64
2023/10/29 06:38:24;;;;;;;6.32;3.78;;;;;;;8.19;100.00;94834.00;5085503;28;20058;-65
2023/10/29 06:40:50;;;;;;;5.63;3.97;;;;;;;8.22;100.00;94822.41;5093776;28;20032;-65
2023/10/29 06:43:15;;;;;;;5.57;4.20;;;;;;;8.13;100.00;94824.13;5084311;28;20020;-65
2023/10/29 06:45:40;;;;;;;5.10;3.88;;;;;;;8.12;100.00;94830.34;5096224;28;20500;-65
2023/10/29 06:48:06;;;;;;;5.30;3.80;;;;;;;8.15;100.00;94830.84;5082630;28;20027;-65
2023/10/29 06:50:31;;;;;;;4.70;3.58;;;;;;;8.17;100.00;94825.47;5080220;28;20450;-64
2023/10/29 06:52:57;;;;;;;7.00;2.88;;;;;;;8.15;100.00;94836.09;5078952;28;20028;-65
2023/10/29 06:55:25;;;;;;;4.40;3.38;;;;;;;8.16;100.00;94836.94;5082586;28;20020;-65
2023/10/29 06:57:50;;;;;;;5.18;3.22;;;;;;;8.20;100.00;94850.56;5096370;28;20508;-64
2023/10/29 07:00:16;;;;;;;3.33;3.03;;;;;;;8.26;100.00;94848.16;5081634;28;20028;-64
2023/10/29 07:02:41;;;;;;;6.13;3.72;;;;;;;8.29;100.00;94852.28;5095741;28;20107;-64
2023/10/29 07:05:07;;;;;;;5.03;3.75;;;;;;;8.28;100.00;94846.22;5088598;28;20024;-64
2023/10/29 07:07:34;;;;;;;4.45;3.38;;;;;;;8.31;100.00;94861.69;5075896;28;20056;-65
2023/10/29 07:10:01;;;;;;;5.25;3.33;;;;;;;8.34;100.00;94857.91;5078106;28;20041;-65
2023/10/29 07:12:26;;;;;;;5.85;3.90;;;;;;;8.38;100.00;94853.22;5087974;28;20036;-65
2023/10/29 07:14:52;;;;;;;5.22;4.10;;;;;;;8.52;100.00;94850.09;5084023;28;20036;-65
2023/10/29 07:17:17;;;;;;;4.95;4.13;;;;;;;8.50;100.00;94857.28;5081913;28;20485;-65
2023/10/29 07:19:42;;;;;;;8.07;3.75;;;;;;;8.52;100.00;94857.13;5080485;28;20103;-64
2023/10/29 07:22:08;;;;;;;4.60;4.20;;;;;;;8.54;100.00;94868.31;5082587;28;20017;-65
2023/10/29 07:24:35;;;;;;;3.60;3.28;;;;;;;8.58;100.00;94867.03;5092795;28;20095;-65
2023/10/29 07:27:01;;;;;;;7.57;3.95;;;;;;;8.66;100.00;94859.25;5082079;28;20028;-65
2023/10/29 07:29:26;;;;;;;4.00;3.30;;;;;;;8.73;100.00;94860.28;5082983;28;20024;-65
2023/10/29 07:31:52;;;;;;;3.75;3.45;;;;;;;8.85;100.00;94858.25;5075709;28;20115;-65
2023/10/29 07:34:17;;;;;;;7.18;4.18;;;;;;;8.86;100.00;94845.97;5087612;28;20028;-64
2023/10/29 07:36:44;;;;;;;4.03;3.47;;;;;;;8.88;100.00;94844.81;5089255;28;20039;-64
2023/10/29 07:39:10;;;;;;;3.72;3.13;;;;;;;9.02;100.00;94835.56;5074980;28;20111;-65
2023/10/29 07:41:35;;;;;;;6.07;3.50;;;;;;;9.10;100.00;94845.31;5093314;28;20023;-65
2023/10/29 07:44:01;;;;;;;4.22;3.60;;;;;;;9.17;100.00;94840.25;5082215;28;20036;-65
2023/10/29 07:46:26;;;;;;;3.90;3.60;;;;;;;9.26;100.00;94828.81;5075519;28;20020;-65
2023/10/29 07:48:52;;;;;;;3.88;2.92;;;;;;;9.31;100.00;94820.47;5074869;28;20026;-65
2023/10/29 07:51:17;;;;;;;3.08;2.85;;;;;;;9.35;100.00;94834.16;5079464;28;20130;-65
2023/10/29 07:53:42;;;;;;;3.10;2.88;;;;;;;9.42;100.00;94843.88;5087272;28;20038;-65
2023/10/29 07:56:13;;;;;;;5.93;3.22;;;;;;;9.59;100.00;94828.19;5076136;28;20029;-65
2023/10/29 07:58:40;;;;;;;4.47;3.45;;;;;;;9.59;100.00;94830.81;5074607;28;20030;-65
2023/10/29 08:01:16;;;;;;;6.55;3.50;;;;;;;9.67;100.00;94838.75;5075312;28;20028;-65
2023/10/29 08:03:43;;;;;;;3.85;3.50;;;;;;;9.76;100.00;94834.34;5082750;28;20013;-65
2023/10/29 08:06:10;;;;;;;3.85;3.55;;;;;;;9.83;100.00;94829.25;5075685;28;20031;-64
2023/10/29 08:08:35;;;;;;;5.45;3.60;;;;;;;9.92;100.00;94812.56;5074015;28;20045;-65
2023/10/29 08:11:01;;;;;;;3.63;3.10;;;;;;;9.94;100.00;94801.84;5085373;28;20489;-65
2023/10/29 08:13:26;;;;;;;3.50;2.95;;;;;;;9.94;100.00;94800.06;5079582;28;20515;-65
2023/10/29 08:15:51;;;;;;;3.90;2.83;;;;;;;10.06;100.00;94808.47;5078145;28;20374;-65
2023/10/29 08:18:17;;;;;;;3.58;3.13;;;;;;;10.10;100.00;94799.28;5083088;28;20728;-65
2023/10/29 08:20:43;;;;;;;8.13;3.40;;;;;;;10.19;100.00;94784.34;5079489;28;20597;-65
2023/10/29 08:23:08;;;;;;;4.25;3.53;;;;;;;10.28;100.00;94785.19;5073593;28;20016;-65
2023/10/29 08:25:37;;;;;;;4.75;3.58;;;;;;;10.39;100.00;94763.84;5086132;28;20020;-65
2023/10/29 08:28:03;;;;;;;3.47;2.72;;;;;;;10.51;100.00;94767.00;5074823;28;20576;-65
2023/10/29 08:30:28;;;;;;;9.32;2.85;;;;;;;10.81;100.00;94738.34;5081399;28;20070;-65
2023/10/29 08:32:54;;;;;;;5.38;3.33;;;;;;;10.77;100.00;94752.81;5089306;28;20024;-65
2023/10/29 08:35:20;;;;;;;5.15;3.03;;;;;;;10.87;100.00;94753.47;5076938;28;20039;-65
2023/10/29 08:37:45;;;;;;;3.25;3.00;;;;;;;10.97;100.00;94749.84;5077707;28;20511;-65
2023/10/29 08:40:12;;;;;;;5.40;2.85;;;;;;;11.06;100.00;94737.47;5086514;28;20417;-65
2023/10/29 08:42:37;;;;;;;3.70;3.15;;;;;;;11.20;100.00;94746.50;5075113;28;20393;-65
2023/10/29 08:45:03;;;;;;;11.00;3.17;;;;;;;11.19;100.00;94748.28;5082060;28;20025;-65
2023/10/29 08:47:29;;;;;;;5.70;3.10;;;;;;;11.20;100.00;94734.13;5074479;28;20032;-65
2023/10/29 08:49:55;;;;;;;3.90;3.53;;;;;;;11.04;100.00;94724.47;5093011;28;20411;-65
2023/10/29 08:52:20;;;;;;;3.47;3.20;;;;;;;11.10;100.00;94720.34;5076817;28;20389;-65
2023/10/29 08:54:47;;;;;;;3.55;3.25;;;;;;;11.14;100.00;94732.97;5078182;28;20139;-65
2023/10/29 08:57:12;;;;;;;5.70;3.60;;;;;;;11.13;100.00;94718.16;5085173;28;20507;-65
2023/10/29 08:59:38;;;;;;;3.53;3.22;;;;;;;11.15;100.00;94716.19;5079141;28;20016;-65
2023/10/29 09:02:04;;;;;;;5.03;3.25;;;;;;;11.08;100.00;94728.41;5083563;28;20102;-65
2023/10/29 09:04:30;;;;;;;4.15;3.75;;;;;;;11.12;100.00;94728.91;5097468;28;20039;-65
2023/10/29 09:06:55;;;;;;;4.07;3.47;;;;;;;11.04;100.00;94733.16;5080393;28;20016;-65
2023/10/29 09:09:21;;;;;;;3.90;3.60;;;;;;;11.02;100.00;94734.34;5079277;28;20586;-65
2023/10/29 09:11:52;;;;;;;5.38;4.35;;;;;;;10.93;100.00;94741.44;5084448;28;20065;-64
2023/10/29 09:14:18;;;;;;;3.90;3.60;;;;;;;10.91;100.00;94747.84;5085993;28;20426;-65
2023/10/29 09:16:47;;;;;;;3.40;3.10;;;;;;;10.94;100.00;94752.78;5077449;28;20174;-65
2023/10/29 09:19:12;;;;;;;3.83;3.28;;;;;;;10.98;100.00;94748.84;5077918;28;20025;-65
2023/10/29 09:21:37;;;;;;;4.22;3.20;;;;;;;11.19;100.00;94748.28;5092731;28;20012;-66
2023/10/29 09:24:03;;;;;;;3.60;3.28;;;;;;;11.09;100.00;94752.94;5082731;28;20030;-65
2023/10/29 09:26:29;;;;;;;6.22;2.90;;;;;;;11.00;100.00;94757.41;5087252;28;20107;-65
2023/10/29 09:28:54;;;;;;;3.45;2.97;;;;;;;11.07;100.00;94761.00;5081549;28;20111;-65
2023/10/29 09:31:20;;;;;;;5.15;3.22;;;;;;;11.08;100.00;94767.91;5077237;28;20020;-65
2023/10/29 09:33:46;;;;;;;4.72;3.10;;;;;;;11.11;100.00;94767.56;5077642;28;20023;-65
2023/10/29 09:36:13;;;;;;;6.22;3.20;;;;;;;11.22;100.00;94766.41;5078793;28;20032;-65
2023/10/29 09:38:39;;;;;;;3.60;3.15;;;;;;;11.40;100.00;94768.84;5088729;28;20021;-66
2023/10/29 09:41:04;;;;;;;3.65;3.35;;;;;;;11.57;100.00;94768.75;5091296;28;20020;-65
2023/10/29 09:43:40;;;;;;;3.90;3.28;;;;;;;11.74;100.00;94762.44;5080841;28;20100;-64
2023/10/29 09:46:05;;;;;;;;;;;;;;;11.83;100.00;94762.41;5082879;28;20029;-64
2023/10/29 09:48:33;;;;;;;5.35;3.20;;;;;;;11.92;100.00;94761.34;5097290;28;19912;-64
2023/10/29 09:51:00;;;;;;;6.25;3.30;;;;;;;11.98;100.00;94759.84;5093952;28;20046;-65
2023/10/29 09:53:26;;;;;;;4.13;3.22;;;;;;;12.06;100.00;94753.75;5085033;28;20444;-64
2023/10/29 09:55:54;;;;;;;5.80;3.45;;;;;;;12.21;100.00;94781.00;5078457;28;20074;-65
2023/10/29 09:58:22;;;;;;;4.75;3.35;;;;;;;12.33;100.00;94794.63;5091934;28;20024;-64
2023/10/29 10:00:49;;;;;;;3.90;3.00;;;;;;;12.52;100.00;94785.44;5077095;28;20028;-63
2023/10/29 10:03:15;;;;;;;4.80;4.30;;;;;;;12.69;100.00;94786.13;5078879;28;20024;-64
2023/10/29 10:05:41;;;;;;;4.47;3.25;;;;;;;12.85;100.00;94779.88;5092750;28;20016;-64
2023/10/29 10:08:07;;;;;;;4.13;3.13;;;;;;;13.05;100.00;94784.66;5092487;28;20111;-64
2023/10/29 10:10:43;;;;;;;3.40;3.10;;;;;;;13.21;100.00;94796.09;5096607;28;20062;-64
2023/10/29 10:13:10;;;;;;;2.80;2.60;;;;;;;13.32;100.00;94798.25;5086642;28;20032;-64
2023/10/29 10:15:37;;;;;;;5.45;3.00;;;;;;;13.33;100.00;94805.19;5086072;28;20035;-64
2023/10/29 10:18:04;;;;;;;4.38;2.40;;;;;;;13.42;100.00;94804.13;5077370;28;20032;-64
2023/10/29 10:20:30;;;;;;;2.75;2.50;;;;;;;13.54;100.00;94804.53;5082183;28;20118;-64
2023/10/29 10:22:58;;;;;;;3.40;2.65;;;;;;;13.61;100.00;94825.78;5078919;28;20052;-64
2023/10/29 10:25:25;;;;;;;5.05;2.55;;;;;;;13.80;100.00;94834.16;5084001;28;20024;-64
2023/10/29 10:27:51;;;;;;;2.80;2.60;;;;;;;13.90;100.00;94832.88;5080321;28;20362;-64
2023/10/29 10:30:30;;;;;;;3.92;2.53;;;;;;;13.98;100.00;94841.72;5086898;28;20083;-64
2023/10/29 10:33:09;;;;;;;5.72;3.30;;;;;;;13.92;100.00;94850.38;5082606;28;20042;-64
2023/10/29 10:35:43;;;;;;;4.10;3.50;;;;;;;14.01;100.00;94850.09;5077163;28;20924;-64
2023/10/29 10:38:09;;;;;;;4.32;2.72;;;;;;;14.10;100.00;94847.38;5081201;28;20124;-65
2023/10/29 10:40:34;;;;;;;5.53;3.10;;;;;;;14.28;100.00;94834.56;5088298;28;20796;-65
2023/10/29 10:42:59;;;;;;;5.60;3.60;;;;;;;14.32;100.00;94846.41;5081943;28;20024;-64
2023/10/29 10:45:26;;;;;;;3.60;3.20;;;;;;;14.31;100.00;94854.53;5083491;28;20020;-65
2023/10/29 10:47:55;;;;;;;2.92;2.70;;;;;;;14.37;100.00;94826.50;5077378;28;20020;-65
2023/10/29 10:50:22;;;;;;;4.80;2.78;;;;;;;14.51;100.00;94819.50;5090046;28;20706;-65
2023/10/29 10:52:51;;;;;;;6.05;2.67;;;;;;;14.55;100.00;94823.41;5089245;28;20700;-64
2023/10/29 10:55:20;;;;;;;3.03;1.50;;;;;;;14.94;100.00;94816.09;5085712;28;20028;-64
2023/10/29 10:57:47;;;;;;;2.85;1.60;;;;;;;15.97;100.00;94820.88;5080380;28;20025;-65
2023/10/29 11:00:13;;;;;;;2.25;1.77;;;;;;;16.53;100.00;94824.38;5075619;28;20065;-64
2023/10/29 11:02:40;;;;;;;1.77;1.33;;;;;;;17.07;100.00;94823.66;5076071;28;20016;-65
2023/10/29 11:05:09;;;;;;;2.80;1.65;;;;;;;17.32;100.00;94832.66;5074331;28;20023;-65
2023/10/29 11:07:36;;;;;;;2.63;1.40;;;;;;;17.58;100.00;94851.47;5075515;28;20028;-65
2023/10/29 11:10:02;;;;;;;2.58;1.60;;;;;;;17.69;100.00;94821.56;5089228;28;20045;-65
2023/10/29 11:12:38;;;;;;;4.03;1.45;;;;;;;17.78;100.00;94816.00;5087283;28;20104;-65
2023/10/29 11:15:15;;;;;;;5.70;1.42;;;;;;;17.76;100.00;94826.88;5081333;28;20143;-65
2023/10/29 11:17:58;;;;;;;4.63;1.42;;;;;;;17.71;100.00;94829.34;5081657;28;20031;-65
2023/10/29 11:20:39;;;;;;;3.47;1.55;;;;;;;17.89;100.00;94820.69;5085143;28;20027;-65
2023/10/29 11:23:13;;;;;;;4.05;1.50;;;;;;;17.90;100.00;94825.84;5075333;28;20024;-65
2023/10/29 11:25:39;;;;;;;1.77;1.47;;;;;;;18.46;100.00;94818.25;5092970;28;20015;-65
2023/10/29 11:28:05;;;;;;;2.75;1.15;;;;;;;18.30;100.00;94821.41;5080448;28;20270;-65
2023/10/29 11:30:31;;;;;;;2.00;1.10;;;;;;;18.38;100.00;94855.81;5075745;28;20028;-65